Amunt
Inicio > meteoXarxa
Fes-te'n soci

METEOXARXA

Benicarló
Ubicació la Cervellona
Comarca el Baix Maestrat
Altitud (msnm)
Posició geogràfica 40° 24' 6.12" N, 00° 24' 51.84" E
Model
Presa de dades
Font de les dades IVIA
Estadístiques. Resum
Data Temperatura (ºC) Humitat (%) Pressió (hPa) Vent (km/h) Precipit. (mm)
Mínima Mitjana Màxima Mínima Mitjana Màxima Mínima Mitjana Màxima Predom. Mitjana Ràfega màxima Total Dies de pluja
Mínima Mitjana Màxima Mínima Mitjana Màxima
Últimes dades diàries
18-01-2017 -0,8     3,7     9,8 37,4 N 5,2 23,5 0,0  
17-01-2017 0,4     7,6     10,8 38,2 NW 7,6 26,5 0,0  
16-01-2017 8,9     13,0     17,4 51,2 N 10,3 31,7 0,0  
15-01-2017 6,0     10,3     14,8 48,9 NW 8,1 25,6 0,0  
13-01-2017 8,1     12,2     15,7 44,7 NW 8,3 31,8 0,0  
12-01-2017 4,2     11,4     18,5 77,7 SW 2,0 14,6 0,0  
11-01-2017 4,8     11,0     15,6 62,9 NW 3,8 19,4 0,0  
10-01-2017 5,0     12,5     15,9 52,8 N 8,5 38,7 0,0  
09-01-2017 0,0     7,1     15,4 75,6 W 2,5 14,5 0,0  
08-01-2017 0,7     6,3     14,8 73,7 NW 2,3 8,8 0,0  
07-01-2017 -0,2     6,0     13,6 80,5 NE 1,8 10,7 0,2  
06-01-2017 2,0     6,7     13,6 69,0 N 1,9 10,4 0,0  
05-01-2017 2,1     8,1     16,0 65,0 NE 2,1 11,0 0,0  
04-01-2017 3,5     8,0     14,0 93,0 N 1,6 10,3 0,2  
03-01-2017 1,5     7,5     13,4 86,7 N 2,0 12,3 0,0  
02-01-2017 2,3     6,0     13,2 80,7 N 5,0 15,8 0,0  
01-01-2017 1,5     5,4     12,1 82,6 N 6,1 15,8 0,0  
31-12-2016 3,0     6,8     15,4 78,7 N 5,5 15,9 0,0  
30-12-2016 2,5     6,8     14,2 72,8 N 6,3 16,4 0,0  
29-12-2016 0,5     6,2     14,8 71,2 N 4,3 14,3 0,0  
28-12-2016 3,6     8,2     17,4 75,5 N 4,4 14,0 0,0  
27-12-2016 3,3     8,3     14,4 77,3 N 3,8 14,2 0,0  
22-12-2016 6,0     10,9     18,3 72,5 NW 2,5 14,2 0,0  
21-12-2016 6,1     11,4     17,5 60,7 N 5,0 22,8 0,0  
20-12-2016 10,4     12,3     16,1 53,4 N 10,1 25,4 0,0  
19-12-2016 6,4     7,9     10,8 63,5 84,9 93,4 N 8,7 24,1 10,3  
18-12-2016 8,2     10,3     12,6 73,8 82,8 93,0 N 7,7 19,9 8,3  
17-12-2016 10,1     12,8     14,3 61,8 82,6 96,1 NE 10,2 30,4 21,2  
16-12-2016 9,5     11,8     14,6 82,7 90,9 97,4 NE 4,7 24,8 14,3  
15-12-2016 6,7     9,9     13,9 67,9 83,1 95,4 N 3,5 13,7 0,2  
14-12-2016 6,1     10,4     16,0 67,4 87,5 96,9 NE 1,3 12,7 0,2  
13-12-2016 2,6     8,6     16,6 57,6 84,8 96,5 NE 1,6 9,6 0,2  
Dades del mes en curs (actualitzades fins l'últim dia disponible)
01/2017 -0,8 2,9 8,9 8,4 9,8 14,4 18,5 65,9   4,7 38,7 0,4  
Últimes dades mensuals
12/2016 0,5 6,3 14,1 10,2 10,8 16,0 19,4 53,4 81,0 93,5 4,3 30,4 85,6 15
11/2016 3,8 8,7 13,7 13,5 13,3 19,0 26,4 42,5 72,7 91,8 3,3 31,9 87,5 11
10/2016 9,8 14,4 17,4 18,6 18,3 24,0 28,1 61,9 79,6 92,5 2,2 20,4 55,9 17
09/2016 12,4 17,5 22,7 28,7 33,8 25,6 68,7 97,3 SE 3,5 86,5 24,6
08/2016 14,9 19,5 24,9 30,3 32,8 27,7 68,2 95,2 SE 3,6 26,8 4,0
07/2016 14,9 19,0 25,1 30,3 33,9 22,4 63,9 97,1 SE 3,8 26,2 0,8
06/2016 11,1 15,8 19,7 21,8 24,2 27,5 32,6 39,5 66,0 83,3 4,3 27,0 5,4 6
05/2016 7,3 11,6 17,1 22,2 27,5 18,4 70,7 98,5 S 4,4 34,2 36,8
04/2016 6,3 9,4 14,6 19,6 24,2 24,1 69,1 98,0 NO 5,3 33,0 56,6
03/2016 0,4 6,9 12,2 17,6 24,0 20,9 62,5 98,6 NO 5,6 39,5 88,3
02/2016 0,3 5,8 11,5 17,7 25,9 22,9 61,5 96,7 NO 5,1 41,6 15,4
01/2016 1,9 6,1 11,3 17,0 24,8 22,7 69,2 97,7 NO 3,9 41,4 3,8
12/2015 3,5 6,9 11,3 17,5 19,7 44,3 85,6 97,5 NO 2,6 15,6 4,0
Dades de l'any en curs (actualitzades fins l'últim dia disponible)
2017 -0,8 2,9 8,9 8,4 9,8 14,4 18,5 65,9   4,7 38,7 0,4  
Últimes dades anuals
2006 425,2
2007 599,0
2008 520,0
2009 -2,0 15,2 23,6 20,0 6,0 24,9 42,3 38,0 67,7 92,0 4,7 47,0 391,2 41
2010 -1,0 11,5 23,6 16,3 5,2 21,1 35,2 32,0 66,9 95,0 4,9 56,0 512,0 97
2011 612,9
2012 433,1
2014 -1,6 12,8 17,6 22,6 33,6 15,1 68,2 97,4 O 4,8 51,5 441,5
2015 -2,0 12,0 17,0 22,5 33,9 13,1 70,1 98,3 O 4,7 47,6 563,8